createdAt,value
2019-03-08T00:02:01.604Z,54.00
2019-03-08T00:04:33.537Z,54.70
2019-03-08T00:07:08.424Z,54.50
2019-03-08T00:09:40.297Z,54.20
2019-03-08T00:12:12.679Z,55.00
2019-03-08T00:14:44.575Z,54.10
2019-03-08T00:17:16.480Z,54.30
2019-03-08T00:19:48.914Z,54.40
2019-03-08T00:22:21.239Z,54.50
2019-03-08T00:24:52.902Z,54.40
2019-03-08T00:27:25.470Z,54.20
2019-03-08T00:29:57.449Z,54.30
2019-03-08T00:32:29.208Z,53.90
2019-03-08T00:35:01.315Z,53.70
2019-03-08T00:37:32.947Z,53.70
2019-03-08T00:40:05.275Z,54.10
2019-03-08T00:42:37.418Z,54.10
2019-03-08T00:45:13.550Z,54.10
2019-03-08T00:47:45.464Z,54.10
2019-03-08T00:50:23.094Z,54.00
2019-03-08T00:52:55.260Z,53.70
2019-03-08T00:55:27.310Z,53.60
2019-03-08T00:57:59.327Z,53.70
2019-03-08T01:00:31.218Z,53.30
2019-03-08T01:03:03.069Z,53.30
2019-03-08T01:05:34.915Z,53.20
2019-03-08T01:08:07.642Z,53.10
2019-03-08T01:10:39.399Z,52.70
2019-03-08T01:13:11.406Z,52.70
2019-03-08T01:15:43.650Z,52.40
2019-03-08T01:18:15.494Z,52.30
2019-03-08T01:20:47.333Z,51.60
2019-03-08T01:23:19.700Z,51.80
2019-03-08T01:25:51.534Z,51.10
2019-03-08T01:28:23.268Z,50.60
2019-03-08T01:30:55.556Z,50.40
2019-03-08T01:33:27.683Z,50.00
2019-03-08T01:35:59.501Z,50.80
2019-03-08T01:38:38.815Z,50.30
2019-03-08T01:41:11.695Z,50.60
2019-03-08T01:43:44.345Z,51.10
2019-03-08T01:46:16.134Z,50.10
2019-03-08T01:49:10.393Z,50.00
2019-03-08T01:51:42.497Z,49.40
2019-03-08T01:54:14.437Z,49.30
2019-03-08T01:56:46.228Z,49.20
2019-03-08T01:59:17.887Z,48.90
2019-03-08T02:01:50.172Z,48.90
2019-03-08T02:04:22.285Z,48.80
2019-03-08T02:07:13.223Z,48.70
2019-03-08T02:09:48.713Z,48.40
2019-03-08T02:12:21.780Z,48.20
2019-03-08T02:14:53.343Z,48.10
2019-03-08T02:17:26.350Z,48.20
2019-03-08T02:19:58.143Z,47.70
2019-03-08T02:22:34.890Z,47.20
2019-03-08T02:25:07.062Z,47.40
2019-03-08T02:27:39.042Z,46.90
2019-03-08T02:30:14.525Z,47.00
2019-03-08T02:32:46.987Z,47.10
2019-03-08T02:35:24.125Z,46.80
2019-03-08T02:38:15.414Z,46.90
2019-03-08T02:40:47.832Z,46.50
2019-03-08T02:43:20.519Z,46.20
2019-03-08T02:45:52.596Z,46.10
2019-03-08T02:48:24.168Z,46.10
2019-03-08T02:50:55.863Z,46.20
2019-03-08T02:53:48.179Z,46.10
2019-03-08T02:56:20.577Z,45.90
2019-03-08T02:58:52.595Z,45.90
2019-03-08T03:01:24.898Z,45.20
2019-03-08T03:03:57.273Z,45.20
2019-03-08T03:06:29.845Z,44.70
2019-03-08T03:09:02.979Z,45.20
2019-03-08T03:11:35.755Z,44.60
2019-03-08T03:14:07.550Z,44.40
2019-03-08T03:16:39.532Z,44.00
2019-03-08T03:19:11.479Z,44.30
2019-03-08T03:21:43.495Z,44.00
2019-03-08T03:24:15.441Z,44.10
2019-03-08T03:26:47.576Z,44.20
2019-03-08T03:29:28.317Z,44.60
2019-03-08T03:32:20.072Z,43.80
2019-03-08T03:34:53.515Z,44.60
2019-03-08T03:37:25.528Z,44.10
2019-03-08T03:39:57.637Z,43.90
2019-03-08T03:42:29.713Z,43.90
2019-03-08T03:45:01.969Z,43.70
2019-03-08T03:47:33.718Z,43.40
2019-03-08T03:50:07.220Z,42.90
2019-03-08T03:52:40.159Z,42.20
2019-03-08T03:55:15.860Z,42.20
2019-03-08T03:57:47.715Z,42.10
2019-03-08T04:00:23.752Z,41.90
2019-03-08T04:02:55.708Z,41.40
2019-03-08T04:05:28.460Z,40.90
2019-03-08T04:08:00.568Z,41.00
2019-03-08T04:10:32.411Z,40.80
2019-03-08T04:13:05.568Z,40.30
2019-03-08T04:15:38.557Z,40.60
2019-03-08T04:18:16.246Z,40.30
2019-03-08T04:20:50.380Z,40.30
2019-03-08T04:23:22.392Z,40.20
2019-03-08T04:26:01.291Z,40.60
2019-03-08T04:28:36.359Z,40.50
2019-03-08T04:31:08.628Z,39.90
2019-03-08T04:33:40.764Z,39.60
2019-03-08T04:36:12.563Z,39.20
2019-03-08T04:38:44.568Z,39.40
2019-03-08T04:41:16.686Z,39.30
2019-03-08T04:43:48.472Z,39.90
2019-03-08T04:46:20.459Z,39.50
2019-03-08T04:48:52.272Z,38.60
2019-03-08T04:51:24.741Z,38.30
2019-03-08T04:53:56.874Z,38.40
2019-03-08T04:56:28.703Z,38.50
2019-03-08T04:59:01.007Z,38.30
2019-03-08T05:01:34.008Z,38.00
2019-03-08T05:04:07.806Z,38.00
2019-03-08T05:06:52.087Z,37.20
2019-03-08T05:09:22.870Z,37.00
2019-03-08T05:11:54.738Z,36.80
2019-03-08T05:14:28.040Z,36.10
2019-03-08T05:16:59.998Z,36.20
2019-03-08T05:19:32.003Z,35.80
2019-03-08T05:22:04.159Z,35.60
2019-03-08T05:24:36.334Z,36.00
2019-03-08T05:27:08.029Z,35.70
2019-03-08T05:29:41.404Z,35.40
2019-03-08T05:32:13.054Z,35.50
2019-03-08T05:34:45.172Z,35.50
2019-03-08T05:37:17.185Z,35.70
2019-03-08T05:39:49.131Z,35.10
2019-03-08T05:42:21.241Z,35.00
2019-03-08T05:44:53.736Z,35.00
2019-03-08T05:47:25.652Z,34.90
2019-03-08T05:49:57.422Z,35.00
2019-03-08T05:52:29.729Z,35.20
2019-03-08T05:55:01.704Z,35.00
2019-03-08T05:57:33.545Z,34.60
2019-03-08T06:00:07.089Z,34.60
2019-03-08T06:02:51.702Z,34.20
2019-03-08T06:05:26.787Z,34.20
2019-03-08T06:08:06.239Z,33.90
2019-03-08T06:10:42.914Z,34.10
2019-03-08T06:13:15.437Z,33.60
2019-03-08T06:15:49.189Z,33.30
2019-03-08T06:18:20.998Z,32.60
2019-03-08T06:21:12.507Z,32.30
2019-03-08T06:23:45.265Z,31.80
2019-03-08T06:26:20.502Z,31.60
2019-03-08T06:28:52.287Z,31.30
2019-03-08T06:31:26.513Z,31.40
2019-03-08T06:34:00.821Z,30.60
2019-03-08T06:36:32.573Z,30.50
2019-03-08T06:39:06.615Z,30.00
2019-03-08T06:41:38.245Z,30.10
2019-03-08T06:44:09.866Z,29.70
2019-03-08T06:46:42.801Z,29.70
2019-03-08T06:49:14.569Z,29.30
2019-03-08T06:51:46.493Z,29.50
2019-03-08T06:54:18.402Z,29.10
2019-03-08T06:56:50.315Z,29.70
2019-03-08T06:59:24.218Z,29.20
2019-03-08T07:01:56.380Z,28.70
2019-03-08T07:04:28.296Z,28.70
2019-03-08T07:07:01.131Z,29.10
2019-03-08T07:09:33.205Z,29.40
2019-03-08T07:12:11.270Z,29.00
2019-03-08T07:14:42.047Z,28.90
2019-03-08T07:17:14.470Z,30.90
2019-03-08T07:19:48.043Z,28.90
2019-03-08T07:22:21.735Z,28.40
2019-03-08T07:24:54.960Z,29.20
2019-03-08T07:27:28.023Z,28.10
2019-03-08T07:30:02.958Z,28.60
2019-03-08T07:32:36.224Z,28.70
2019-03-08T07:35:11.236Z,29.00
2019-03-08T07:37:45.587Z,28.20
2019-03-08T07:40:19.410Z,28.10
2019-03-08T07:42:55.261Z,28.20
2019-03-08T07:45:28.650Z,28.40
2019-03-08T07:48:01.664Z,28.40
2019-03-08T07:50:36.337Z,28.40
2019-03-08T07:53:07.696Z,28.50
2019-03-08T07:55:54.462Z,28.30
2019-03-08T07:58:27.842Z,28.20
2019-03-08T08:01:01.666Z,28.60
2019-03-08T08:03:34.888Z,28.60
2019-03-08T08:06:11.743Z,28.40
2019-03-08T08:08:51.528Z,28.50
2019-03-08T08:11:21.470Z,28.70
2019-03-08T08:13:54.357Z,28.50
2019-03-08T08:16:27.981Z,28.90
2019-03-08T08:19:16.037Z,28.70
2019-03-08T08:21:49.575Z,28.50
2019-03-08T08:24:23.545Z,28.60
2019-03-08T08:26:56.675Z,28.30
2019-03-08T08:29:35.171Z,28.00
2019-03-08T08:32:07.474Z,28.20
2019-03-08T08:34:42.353Z,29.20
2019-03-08T08:37:15.602Z,28.80
2019-03-08T08:39:48.682Z,28.70
2019-03-08T08:42:22.434Z,28.60
2019-03-08T08:44:55.550Z,28.50
2019-03-08T08:47:31.978Z,29.40
2019-03-08T08:50:12.781Z,28.40
2019-03-08T08:52:56.465Z,28.20
2019-03-08T08:55:29.697Z,27.90
2019-03-08T08:58:03.517Z,28.50
2019-03-08T09:00:39.852Z,28.40
2019-03-08T09:03:13.798Z,28.60
2019-03-08T09:05:47.112Z,29.00
2019-03-08T09:08:38.192Z,29.20
2019-03-08T09:11:11.635Z,28.50
2019-03-08T09:13:43.570Z,28.60
2019-03-08T09:16:17.379Z,28.80
2019-03-08T09:18:50.965Z,28.70
2019-03-08T09:21:24.003Z,28.40
2019-03-08T09:23:58.301Z,28.60
2019-03-08T09:26:33.118Z,27.80
2019-03-08T09:29:07.035Z,28.30
2019-03-08T09:31:40.548Z,27.90
2019-03-08T09:34:15.784Z,27.60
2019-03-08T09:36:49.275Z,28.40
2019-03-08T09:39:24.834Z,28.20
2019-03-08T09:41:57.846Z,27.80
2019-03-08T09:44:31.303Z,28.10
2019-03-08T09:47:07.118Z,28.00
2019-03-08T09:49:43.753Z,28.30
2019-03-08T09:52:17.351Z,28.00
2019-03-08T09:54:53.502Z,28.00
2019-03-08T09:57:25.768Z,27.80
2019-03-08T09:59:59.238Z,28.00
2019-03-08T10:02:32.267Z,28.50
2019-03-08T10:05:05.857Z,28.30
2019-03-08T10:07:39.021Z,28.20
2019-03-08T10:10:14.152Z,28.30
2019-03-08T10:12:50.789Z,28.50
2019-03-08T10:15:25.789Z,29.00
2019-03-08T10:18:09.241Z,28.40
2019-03-08T10:20:42.680Z,29.00
2019-03-08T10:23:19.977Z,29.00
2019-03-08T10:25:50.985Z,29.20
2019-03-08T10:28:24.334Z,29.80
2019-03-08T10:30:57.901Z,31.50
2019-03-08T10:33:31.016Z,30.60
2019-03-08T10:36:04.552Z,30.80
2019-03-08T10:38:37.518Z,30.50
2019-03-08T10:41:11.267Z,30.10
2019-03-08T10:43:44.269Z,33.00
2019-03-08T10:46:18.250Z,29.80
2019-03-08T10:48:51.401Z,29.80
2019-03-08T10:51:24.605Z,29.40
2019-03-08T10:54:00.706Z,31.10
2019-03-08T10:56:33.184Z,31.50
2019-03-08T10:59:06.376Z,30.10
2019-03-08T11:01:38.985Z,30.00
2019-03-08T11:04:12.456Z,30.60
2019-03-08T11:06:45.903Z,30.80
2019-03-08T11:09:21.641Z,30.10
2019-03-08T11:11:56.256Z,30.20
2019-03-08T11:14:32.007Z,30.70
2019-03-08T11:17:05.792Z,30.90
2019-03-08T11:19:39.131Z,30.60
2019-03-08T11:22:12.652Z,30.60
2019-03-08T11:24:46.994Z,30.90
2019-03-08T11:27:20.320Z,32.00
2019-03-08T11:29:53.757Z,31.60
2019-03-08T11:32:28.545Z,31.30
2019-03-08T11:35:06.046Z,31.30
2019-03-08T11:37:44.042Z,31.40
2019-03-08T11:40:17.742Z,31.80
2019-03-08T11:42:51.645Z,31.80
2019-03-08T11:45:26.234Z,31.50
2019-03-08T11:47:59.493Z,31.80
2019-03-08T11:50:32.635Z,32.00
2019-03-08T11:53:06.379Z,31.60
2019-03-08T11:55:42.538Z,31.80
2019-03-08T11:58:16.747Z,32.00
2019-03-08T12:00:50.047Z,33.10
2019-03-08T12:03:23.518Z,32.30
2019-03-08T12:05:56.527Z,32.60
2019-03-08T12:08:31.000Z,32.20
2019-03-08T12:11:07.964Z,33.90
2019-03-08T12:13:41.960Z,32.30
2019-03-08T12:16:13.720Z,32.50
2019-03-08T12:18:47.104Z,32.40
2019-03-08T12:21:19.895Z,32.50
2019-03-08T12:23:53.058Z,33.10
2019-03-08T12:26:27.098Z,33.30
2019-03-08T12:29:06.736Z,32.90
2019-03-08T12:31:39.717Z,33.00
2019-03-08T12:34:13.325Z,33.20
2019-03-08T12:36:46.399Z,33.30
2019-03-08T12:39:20.413Z,33.50
2019-03-08T12:41:53.621Z,33.80
2019-03-08T12:44:28.583Z,33.40
2019-03-08T12:47:01.768Z,33.40
2019-03-08T12:49:35.137Z,33.50
2019-03-08T12:52:08.373Z,34.10
2019-03-08T12:54:41.861Z,33.70
2019-03-08T12:57:15.052Z,33.60
2019-03-08T12:59:49.689Z,33.70
2019-03-08T13:02:22.758Z,34.60
2019-03-08T13:04:59.424Z,33.80
2019-03-08T13:07:30.506Z,33.60
2019-03-08T13:10:04.077Z,33.90
2019-03-08T13:12:36.212Z,34.30
2019-03-08T13:15:11.784Z,34.00
2019-03-08T13:17:43.565Z,34.00
2019-03-08T13:20:20.107Z,34.00
2019-03-08T13:22:51.992Z,33.90
2019-03-08T13:25:24.110Z,34.80
2019-03-08T13:27:56.737Z,34.60
2019-03-08T13:30:28.705Z,34.50
2019-03-08T13:33:00.800Z,34.30
2019-03-08T13:35:33.100Z,34.60
2019-03-08T13:38:04.591Z,34.40
2019-03-08T13:40:37.612Z,34.90
2019-03-08T13:43:09.486Z,35.70
2019-03-08T13:45:41.486Z,35.60
2019-03-08T13:48:13.561Z,34.60
2019-03-08T13:50:45.578Z,34.60
2019-03-08T13:53:17.501Z,36.10
2019-03-08T13:55:49.183Z,34.90
2019-03-08T13:58:41.316Z,34.90
2019-03-08T14:01:13.439Z,35.50
2019-03-08T14:03:45.416Z,35.10
2019-03-08T14:06:17.412Z,35.10
2019-03-08T14:08:49.529Z,35.40
2019-03-08T14:11:21.194Z,35.20
2019-03-08T14:13:53.246Z,35.10
2019-03-08T14:16:25.300Z,35.10
2019-03-08T14:18:57.254Z,35.30
2019-03-08T14:21:31.468Z,36.80
2019-03-08T14:24:03.559Z,35.50
2019-03-08T14:26:35.417Z,36.00
2019-03-08T14:29:08.740Z,36.00
2019-03-08T14:31:45.376Z,36.20
2019-03-08T14:34:17.096Z,35.50
2019-03-08T14:36:48.849Z,35.80
2019-03-08T14:39:24.841Z,35.80
2019-03-08T14:41:58.926Z,37.10
2019-03-08T14:44:34.005Z,35.90
2019-03-08T14:47:07.284Z,36.60
2019-03-08T14:49:39.502Z,37.30
2019-03-08T14:52:11.682Z,36.30
2019-03-08T14:54:46.433Z,36.30
2019-03-08T14:57:26.770Z,36.30
2019-03-08T14:59:53.104Z,37.10
2019-03-08T15:02:25.720Z,36.70
2019-03-08T15:04:57.787Z,36.60
2019-03-08T15:07:29.670Z,36.90
2019-03-08T15:10:05.906Z,36.70
2019-03-08T15:12:37.592Z,37.20
2019-03-08T15:15:13.089Z,37.80
2019-03-08T15:17:45.164Z,37.30
2019-03-08T15:20:19.912Z,37.10
2019-03-08T15:22:51.848Z,37.40
2019-03-08T15:25:45.309Z,37.50
2019-03-08T15:28:16.297Z,37.40
2019-03-08T15:31:02.538Z,37.40
2019-03-08T15:33:35.170Z,37.30
2019-03-08T15:36:08.410Z,37.40
2019-03-08T15:38:40.537Z,37.50
2019-03-08T15:41:12.256Z,37.20
2019-03-08T15:43:47.030Z,37.50
2019-03-08T15:46:22.044Z,37.30
2019-03-08T15:49:03.923Z,37.70
2019-03-08T15:51:41.380Z,37.60
2019-03-08T15:54:16.475Z,37.80
2019-03-08T15:56:47.855Z,37.90
2019-03-08T15:59:19.414Z,38.00
2019-03-08T16:01:51.930Z,38.30
2019-03-08T16:04:23.773Z,38.40
2019-03-08T16:06:55.526Z,38.50
2019-03-08T16:09:27.204Z,38.70
2019-03-08T16:11:58.972Z,38.60
2019-03-08T16:14:31.074Z,38.70
2019-03-08T16:17:03.052Z,38.80
2019-03-08T16:19:35.033Z,38.80
2019-03-08T16:22:08.603Z,39.20
2019-03-08T16:24:40.213Z,39.20
2019-03-08T16:27:11.669Z,39.00
2019-03-08T16:29:43.370Z,39.20
2019-03-08T16:32:17.885Z,39.30
2019-03-08T16:34:50.114Z,40.10
2019-03-08T16:37:23.366Z,39.90
2019-03-08T16:39:56.874Z,39.40
2019-03-08T16:42:30.116Z,39.70
2019-03-08T16:45:03.361Z,39.40
2019-03-08T16:47:42.490Z,39.70
2019-03-08T16:50:14.787Z,39.80
2019-03-08T16:52:49.577Z,39.70
2019-03-08T16:55:40.398Z,40.00
2019-03-08T16:58:14.718Z,40.40
2019-03-08T17:00:48.017Z,40.50
2019-03-08T17:03:21.209Z,40.90
2019-03-08T17:05:54.334Z,41.10
2019-03-08T17:08:27.506Z,42.10
2019-03-08T17:11:01.298Z,42.40
2019-03-08T17:13:35.057Z,42.10
2019-03-08T17:16:08.172Z,41.50
2019-03-08T17:18:41.608Z,42.50
2019-03-08T17:21:14.783Z,42.00
2019-03-08T17:23:47.987Z,41.60
2019-03-08T17:26:20.057Z,42.40
2019-03-08T17:28:53.769Z,42.20
2019-03-08T17:31:27.261Z,42.70
2019-03-08T17:34:03.005Z,42.90
2019-03-08T17:36:38.295Z,43.10
2019-03-08T17:39:13.126Z,43.80
2019-03-08T17:41:46.169Z,43.20
2019-03-08T17:44:19.555Z,43.30
2019-03-08T17:46:53.071Z,43.30
2019-03-08T17:49:26.395Z,43.90
2019-03-08T17:51:59.470Z,43.40
2019-03-08T17:54:32.598Z,43.60
2019-03-08T17:57:05.984Z,43.40
2019-03-08T17:59:38.519Z,43.70
2019-03-08T18:02:12.114Z,43.80
2019-03-08T18:04:45.522Z,44.00
2019-03-08T18:07:18.558Z,44.80
2019-03-08T18:09:51.725Z,44.00
2019-03-08T18:12:24.669Z,44.50
2019-03-08T18:14:58.932Z,44.90
2019-03-08T18:17:32.022Z,44.90
2019-03-08T18:20:07.776Z,45.50
2019-03-08T18:22:40.688Z,45.20
2019-03-08T18:25:13.851Z,45.80
2019-03-08T18:27:46.945Z,45.60
2019-03-08T18:30:20.753Z,46.00
2019-03-08T18:32:53.831Z,45.80
2019-03-08T18:35:29.952Z,45.20
2019-03-08T18:38:02.913Z,46.00
2019-03-08T18:40:35.764Z,45.40
2019-03-08T18:43:09.787Z,45.80
2019-03-08T18:45:43.598Z,45.90
2019-03-08T18:48:14.994Z,44.70
2019-03-08T18:50:48.072Z,45.50
2019-03-08T18:53:21.959Z,45.20
2019-03-08T18:55:53.197Z,45.20
2019-03-08T18:58:26.372Z,45.60
2019-03-08T19:01:00.311Z,46.00
2019-03-08T19:03:31.758Z,46.20
2019-03-08T19:06:05.583Z,46.20
2019-03-08T19:08:38.511Z,46.40
2019-03-08T19:11:10.538Z,46.30
2019-03-08T19:13:43.495Z,46.30
2019-03-08T19:16:16.537Z,46.70
2019-03-08T19:18:49.458Z,47.40
2019-03-08T19:21:25.703Z,47.10
2019-03-08T19:23:58.718Z,47.50
2019-03-08T19:26:32.139Z,47.80
2019-03-08T19:29:05.220Z,47.20
2019-03-08T19:31:38.505Z,47.70
2019-03-08T19:34:11.716Z,47.60
2019-03-08T19:36:46.132Z,47.60
2019-03-08T19:39:17.753Z,47.70
2019-03-08T19:41:50.992Z,48.60
2019-03-08T19:44:24.774Z,48.10
2019-03-08T19:46:59.521Z,48.50
2019-03-08T19:49:30.869Z,47.70
2019-03-08T19:52:03.865Z,47.90
2019-03-08T19:54:37.089Z,48.30
2019-03-08T19:57:10.153Z,48.30
2019-03-08T19:59:43.218Z,48.50
2019-03-08T20:02:16.192Z,48.50
2019-03-08T20:04:49.709Z,48.80
2019-03-08T20:07:22.477Z,48.60
2019-03-08T20:09:55.534Z,48.90
2019-03-08T20:12:28.646Z,48.80
2019-03-08T20:15:02.380Z,49.10
2019-03-08T20:17:35.184Z,49.10
2019-03-08T20:20:16.690Z,48.40
2019-03-08T20:22:49.569Z,49.30
2019-03-08T20:25:23.082Z,49.10
2019-03-08T20:27:56.042Z,49.50
2019-03-08T20:30:29.215Z,49.60
2019-03-08T20:33:02.244Z,49.30
2019-03-08T20:35:35.426Z,49.40
2019-03-08T20:38:10.103Z,49.20
2019-03-08T20:40:43.628Z,49.00
2019-03-08T20:43:16.467Z,49.50
2019-03-08T20:45:49.693Z,50.10
2019-03-08T20:48:21.582Z,49.80
2019-03-08T20:50:53.459Z,49.40
2019-03-08T20:53:25.936Z,49.50
2019-03-08T20:55:57.663Z,49.80
2019-03-08T20:58:29.442Z,49.60
2019-03-08T21:01:01.809Z,50.00
2019-03-08T21:03:33.680Z,49.80
2019-03-08T21:06:05.553Z,50.30
2019-03-08T21:08:37.384Z,50.30
2019-03-08T21:11:09.158Z,50.50
2019-03-08T21:13:40.748Z,50.00
2019-03-08T21:16:13.074Z,49.90
2019-03-08T21:18:44.844Z,49.70
2019-03-08T21:21:19.140Z,50.10
2019-03-08T21:23:51.029Z,50.40
2019-03-08T21:26:22.602Z,49.70
2019-03-08T21:28:54.466Z,50.50
2019-03-08T21:31:26.499Z,50.10
2019-03-08T21:33:58.413Z,50.10
2019-03-08T21:36:31.789Z,50.80
2019-03-08T21:39:05.597Z,50.60
2019-03-08T21:41:38.070Z,50.50
2019-03-08T21:44:09.633Z,50.50
2019-03-08T21:46:41.367Z,51.00
2019-03-08T21:49:13.351Z,50.80
2019-03-08T21:51:45.208Z,50.20
2019-03-08T21:54:16.895Z,50.50
2019-03-08T21:56:48.685Z,50.40
2019-03-08T21:59:21.229Z,50.50
2019-03-08T22:01:52.958Z,50.90
2019-03-08T22:04:26.087Z,50.70
2019-03-08T22:06:58.385Z,50.40
2019-03-08T22:09:31.784Z,50.30
2019-03-08T22:12:03.626Z,50.30
2019-03-08T22:14:36.050Z,50.70
2019-03-08T22:17:08.113Z,51.20
2019-03-08T22:19:40.005Z,50.50
2019-03-08T22:22:11.735Z,50.70
2019-03-08T22:24:44.344Z,50.70
2019-03-08T22:27:15.952Z,50.80
2019-03-08T22:29:50.313Z,50.80
2019-03-08T22:32:22.056Z,51.10
2019-03-08T22:34:53.720Z,51.50
2019-03-08T22:37:25.602Z,51.20
2019-03-08T22:39:59.292Z,51.10
2019-03-08T22:42:32.076Z,50.80
2019-03-08T22:45:04.045Z,51.80
2019-03-08T22:47:36.313Z,51.10
2019-03-08T22:50:11.941Z,51.00
2019-03-08T22:52:44.519Z,51.10
2019-03-08T22:55:17.421Z,50.30
2019-03-08T22:57:49.093Z,50.50
2019-03-08T23:00:26.143Z,50.70
2019-03-08T23:02:57.611Z,51.30
2019-03-08T23:05:29.076Z,51.20
2019-03-08T23:08:00.919Z,51.60
2019-03-08T23:10:32.491Z,51.30
2019-03-08T23:13:04.562Z,51.50
2019-03-08T23:15:36.728Z,51.90
2019-03-08T23:18:08.696Z,51.60
2019-03-08T23:20:40.310Z,52.00
2019-03-08T23:23:12.811Z,52.00
2019-03-08T23:25:44.565Z,52.00
2019-03-08T23:28:17.657Z,52.70
2019-03-08T23:30:50.777Z,53.10
2019-03-08T23:33:22.483Z,53.20
2019-03-08T23:35:53.960Z,53.20
2019-03-08T23:38:26.013Z,53.20
2019-03-08T23:40:58.710Z,53.50
2019-03-08T23:43:30.583Z,53.20
2019-03-08T23:46:02.444Z,52.90
2019-03-08T23:48:34.205Z,53.00
2019-03-08T23:51:06.182Z,53.40
2019-03-08T23:53:37.880Z,53.10
2019-03-08T23:56:09.783Z,53.50
2019-03-08T23:58:41.745Z,53.30
